Time;durP1;ratioP1;P1;durP2;ratioP2;P2;SDS_P1;SDS_P2;PMS_P1;PMS_P2;Temp;Humidity;BMP_temperature;BMP_pressure;BME280_temperature;BME280_humidity;BME280_pressure;Samples;Min_cycle;Max_cycle;Signal;HPM_P1;HPM_P2
2021/10/26 10:25:30;;;;;;;11.80;6.20;;;17.90;68.90;;;;;;5068715;27;1979720;-77
2021/10/26 10:27:56;;;;;;;12.98;6.75;;;17.80;69.20;;;;;;5105735;28;20114;-78
2021/10/26 10:30:21;;;;;;;12.40;6.10;;;17.30;70.00;;;;;;5106847;28;20111;-77
2021/10/26 10:32:47;;;;;;;14.05;6.60;;;16.80;71.00;;;;;;5091454;28;20118;-77
2021/10/26 10:35:16;;;;;;;7.20;5.22;;;16.60;71.80;;;;;;5076790;28;20487;-82
2021/10/26 10:37:43;;;;;;;10.02;6.47;;;16.50;72.20;;;;;;5072406;28;20047;-77
2021/10/26 10:40:10;;;;;;;11.55;7.18;;;16.50;71.90;;;;;;5122333;28;20034;-78
2021/10/26 10:42:51;;;;;;;13.50;6.35;;;16.40;72.00;;;;;;5108651;28;20122;-78
2021/10/26 10:45:39;;;;;;;10.43;5.80;;;16.40;72.00;;;;;;5097814;28;20036;-79
2021/10/26 10:48:28;;;;;;;13.57;6.15;;;16.40;71.80;;;;;;5092165;28;20085;-78
2021/10/26 10:51:09;;;;;;;11.32;5.93;;;16.50;71.70;;;;;;5095805;28;20093;-78
2021/10/26 10:53:36;;;;;;;10.55;6.10;;;16.50;71.90;;;;;;5097431;28;20062;-79
2021/10/26 10:56:20;;;;;;;11.80;5.57;;;16.40;72.00;;;;;;5092161;28;20038;-78
2021/10/26 10:58:49;;;;;;;12.05;5.63;;;16.40;71.80;;;;;;5109422;28;20115;-79
2021/10/26 11:01:26;;;;;;;12.10;5.10;;;16.40;72.20;;;;;;5106159;28;20035;-80
2021/10/26 11:03:53;;;;;;;11.98;5.38;;;16.40;71.90;;;;;;5116170;28;20031;-78
2021/10/26 11:06:41;;;;;;;9.32;3.70;;;16.50;71.70;;;;;;5086064;28;20035;-79
2021/10/26 11:09:34;;;;;;;9.55;4.28;;;16.60;71.40;;;;;;5106405;28;20024;-78
2021/10/26 11:12:24;;;;;;;9.70;4.72;;;16.60;71.10;;;;;;5098393;28;20036;-77
2021/10/26 11:14:57;;;;;;;11.85;4.20;;;16.80;70.90;;;;;;5104065;28;20109;-78
2021/10/26 11:17:35;;;;;;;16.02;5.32;;;16.90;69.60;;;;;;5125943;28;20027;-78
2021/10/26 11:20:05;;;;;;;11.32;4.95;;;16.90;70.50;;;;;;5100937;28;20057;-77
2021/10/26 11:22:46;;;;;;;13.27;5.00;;;16.90;70.50;;;;;;5111484;28;20035;-77
2021/10/26 11:25:19;;;;;;;8.40;4.07;;;17.00;70.20;;;;;;5106962;28;20058;-78
2021/10/26 11:27:45;;;;;;;11.00;4.25;;;16.90;69.80;;;;;;5107778;28;20015;-78
2021/10/26 11:30:29;;;;;;;8.10;4.25;;;16.80;70.40;;;;;;5105706;28;20035;-78
2021/10/26 11:33:12;;;;;;;12.32;5.10;;;16.80;71.00;;;;;;5087706;28;20100;-78
2021/10/26 11:35:53;;;;;;;12.93;5.18;;;16.80;71.10;;;;;;5099589;28;20024;-77
2021/10/26 11:38:36;;;;;;;10.57;4.50;;;16.90;70.90;;;;;;5093586;28;20032;-78
2021/10/26 11:41:08;;;;;;;10.80;4.55;;;17.00;70.50;;;;;;5092958;28;20107;-77
2021/10/26 11:43:49;;;;;;;10.73;3.35;;;17.10;70.20;;;;;;5092239;28;20800;-77
2021/10/26 11:46:25;;;;;;;13.55;5.95;;;17.00;69.80;;;;;;5089327;28;20588;-78
2021/10/26 11:49:07;;;;;;;10.40;4.72;;;17.10;70.20;;;;;;5078528;28;20028;-79
2021/10/26 11:51:39;;;;;;;8.70;4.10;;;17.20;69.80;;;;;;5073971;28;20035;-79
2021/10/26 11:54:19;;;;;;;8.48;3.45;;;17.30;69.50;;;;;;5074822;28;20031;-77
2021/10/26 11:56:49;;;;;;;7.68;3.10;;;17.10;69.60;;;;;;5111078;28;20016;-77
2021/10/26 11:59:39;;;;;;;10.65;3.40;;;17.10;70.00;;;;;;5081076;28;20475;-77
2021/10/26 12:02:15;;;;;;;7.75;3.10;;;17.10;70.10;;;;;;5098551;28;20042;-78
2021/10/26 12:04:53;;;;;;;8.25;2.85;;;17.10;69.70;;;;;;5076757;28;20032;-79
2021/10/26 12:07:21;;;;;;;7.53;2.42;;;17.10;69.90;;;;;;5075796;28;20036;-77
2021/10/26 12:09:49;;;;;;;7.78;3.28;;;17.10;69.50;;;;;;5101918;28;20036;-78
2021/10/26 12:12:30;;;;;;;6.90;1.90;;;17.10;69.50;;;;;;5081441;28;20023;-77
2021/10/26 12:14:59;;;;;;;8.80;2.05;;;17.10;68.90;;;;;;5093120;28;20542;-78
2021/10/26 12:17:33;;;;;;;10.43;2.80;;;16.80;69.20;;;;;;5092228;28;20043;-80
2021/10/26 12:20:15;;;;;;;7.72;2.95;;;16.70;69.70;;;;;;5102605;28;20028;-77
2021/10/26 12:22:50;;;;;;;8.98;2.55;;;16.80;69.90;;;;;;5096221;28;20039;-78
2021/10/26 12:25:26;;;;;;;9.15;2.58;;;16.80;69.70;;;;;;5088441;28;20056;-78
2021/10/26 12:27:53;;;;;;;8.13;2.50;;;16.80;69.70;;;;;;5073373;28;20119;-78
2021/10/26 12:30:40;;;;;;;9.23;2.80;;;16.90;69.60;;;;;;5070985;28;20021;-80
2021/10/26 12:33:21;;;;;;;7.45;2.75;;;17.00;69.60;;;;;;5078913;28;20024;-77
2021/10/26 12:36:05;;;;;;;7.55;2.85;;;17.10;69.40;;;;;;5091557;28;20099;-79
2021/10/26 12:38:36;;;;;;;8.32;2.50;;;17.10;69.00;;;;;;5084277;28;20033;-79
2021/10/26 12:41:17;;;;;;;7.47;2.20;;;17.20;69.20;;;;;;5070500;28;20115;-78
2021/10/26 12:43:45;;;;;;;5.25;2.10;;;17.20;68.50;;;;;;5069968;28;20036;-78
2021/10/26 12:46:24;;;;;;;7.65;2.38;;;17.20;69.00;;;;;;5053734;28;20144;-79
2021/10/26 12:48:52;;;;;;;7.82;2.22;;;17.30;68.90;;;;;;5068885;28;20646;-79
2021/10/26 12:51:26;;;;;;;4.90;1.88;;;17.40;68.90;;;;;;5084473;28;20016;-78
2021/10/26 12:53:52;;;;;;;7.30;2.22;;;17.40;69.00;;;;;;5084159;28;20032;-78
2021/10/26 12:56:21;;;;;;;6.57;1.95;;;17.50;68.50;;;;;;5085473;28;20105;-78
2021/10/26 12:58:50;;;;;;;7.65;2.30;;;17.40;68.10;;;;;;5089577;28;20032;-77
2021/10/26 13:01:21;;;;;;;9.68;2.35;;;17.40;69.00;;;;;;5072290;28;20039;-78
2021/10/26 13:04:12;;;;;;;6.22;1.90;;;17.30;68.60;;;;;;5069304;28;20051;-79
2021/10/26 13:06:46;;;;;;;9.02;2.47;;;17.10;68.60;;;;;;5074498;28;20036;-80
2021/10/26 13:09:44;;;;;;;9.07;2.22;;;17.00;68.90;;;;;;5076897;28;20052;-79
2021/10/26 13:12:30;;;;;;;7.90;1.77;;;16.90;69.10;;;;;;5073394;28;20019;-79
2021/10/26 13:15:02;;;;;;;7.55;2.63;;;16.70;69.30;;;;;;5081227;28;20050;-79
2021/10/26 13:17:32;;;;;;;9.13;2.20;;;16.60;69.80;;;;;;5071922;28;20067;-79
2021/10/26 13:20:24;;;;;;;6.55;2.63;;;16.60;70.00;;;;;;5089630;28;20046;-78
2021/10/26 13:22:58;;;;;;;8.63;2.60;;;16.60;70.30;;;;;;5077294;28;20120;-78
2021/10/26 13:25:39;;;;;;;9.45;2.88;;;16.60;70.30;;;;;;5069367;28;20135;-79
2021/10/26 13:28:07;;;;;;;8.43;3.40;;;16.60;70.20;;;;;;5069927;28;20021;-79
2021/10/26 13:30:46;;;;;;;9.23;3.33;;;16.70;70.30;;;;;;5070097;28;20024;-79
2021/10/26 13:33:12;;;;;;;6.97;2.72;;;16.70;70.10;;;;;;5069660;28;20020;-79
2021/10/26 13:35:38;;;;;;;10.90;2.30;;;16.80;70.10;;;;;;5052541;28;20119;-79
2021/10/26 13:38:03;;;;;;;8.50;2.60;;;16.80;69.70;;;;;;5052466;28;20024;-79
2021/10/26 13:40:29;;;;;;;4.97;2.40;;;16.90;70.10;;;;;;5069289;28;20043;-79
2021/10/26 13:42:55;;;;;;;8.88;2.10;;;17.00;69.80;;;;;;5051860;28;20042;-79
2021/10/26 13:45:23;;;;;;;6.03;2.40;;;17.00;69.40;;;;;;5052420;28;20040;-79
2021/10/26 13:47:48;;;;;;;6.78;2.25;;;16.90;69.30;;;;;;5058763;28;20028;-79
2021/10/26 13:50:15;;;;;;;9.80;4.15;;;16.80;69.40;;;;;;5050843;28;20505;-79
2021/10/26 13:52:41;;;;;;;7.75;2.92;;;16.70;69.30;;;;;;5089050;28;20056;-80
2021/10/26 13:55:08;;;;;;;7.10;1.60;;;16.70;69.10;;;;;;5088543;28;20042;-79
2021/10/26 13:57:39;;;;;;;6.70;2.42;;;16.70;69.00;;;;;;5072603;28;20423;-79
2021/10/26 14:00:13;;;;;;;8.48;2.50;;;16.70;69.00;;;;;;5088848;28;20035;-79
2021/10/26 14:02:43;;;;;;;5.93;2.10;;;16.80;69.00;;;;;;5089362;28;20024;-78
2021/10/26 14:05:10;;;;;;;8.48;2.10;;;16.80;68.90;;;;;;5077280;28;20028;-79
2021/10/26 14:07:36;;;;;;;7.40;1.50;;;16.80;68.70;;;;;;5072437;28;20032;-80
2021/10/26 14:10:06;;;;;;;6.60;1.60;;;16.80;68.70;;;;;;5087463;28;20028;-80
2021/10/26 14:12:32;;;;;;;7.72;2.05;;;16.80;68.60;;;;;;5089230;28;20031;-79
2021/10/26 14:14:58;;;;;;;6.00;1.80;;;16.80;69.00;;;;;;5089594;28;20107;-79
2021/10/26 14:17:24;;;;;;;6.97;1.55;;;16.80;69.10;;;;;;5089071;28;20470;-78
2021/10/26 14:19:50;;;;;;;10.00;1.50;;;16.80;69.10;;;;;;5082254;28;20066;-79
2021/10/26 14:22:17;;;;;;;7.53;1.17;;;16.70;69.10;;;;;;5081196;28;20028;-79
2021/10/26 14:24:43;;;;;;;7.63;1.30;;;16.70;69.10;;;;;;5093750;28;20056;-79
2021/10/26 14:27:09;;;;;;;7.22;1.13;;;16.70;69.30;;;;;;5056371;28;20024;-79
2021/10/26 14:29:35;;;;;;;6.43;1.10;;;16.60;69.50;;;;;;5065432;28;20038;-79
2021/10/26 14:32:00;;;;;;;6.82;1.10;;;16.50;69.50;;;;;;5081470;28;20053;-80
2021/10/26 14:34:26;;;;;;;7.50;1.73;;;16.50;69.70;;;;;;5080853;28;20035;-81
2021/10/26 14:36:57;;;;;;;7.35;1.40;;;16.50;69.70;;;;;;5076376;28;20414;-79
2021/10/26 14:39:40;;;;;;;8.45;1.30;;;16.50;70.00;;;;;;5072848;28;20514;-79
2021/10/26 14:53:36;;;;;;;8.13;2.80;;;16.10;70.70;;;;;;5038091;28;20519;-79
2021/10/26 14:56:08;;;;;;;10.95;2.95;;;16.10;70.90;;;;;;5076213;28;20075;-80
2021/10/26 14:58:37;;;;;;;8.10;2.90;;;16.10;71.20;;;;;;5090467;28;20024;-83
2021/10/26 15:01:04;;;;;;;8.70;3.90;;;16.00;70.80;;;;;;5089935;28;20456;-78
2021/10/26 15:03:30;;;;;;;11.18;3.10;;;16.00;71.20;;;;;;5056533;28;20060;-83
2021/10/26 15:05:57;;;;;;;16.15;4.28;;;15.90;71.50;;;;;;5071228;28;20071;-82
2021/10/26 15:08:26;;;;;;;8.18;3.40;;;15.80;71.90;;;;;;5075249;28;20040;-82
2021/10/26 15:11:08;;;;;;;10.13;3.45;;;15.70;72.00;;;;;;5074517;28;20115;-82
2021/10/26 15:13:39;;;;;;;9.20;4.15;;;15.70;72.10;;;;;;5047689;28;20032;-80
2021/10/26 15:16:06;;;;;;;13.63;4.35;;;15.70;72.20;;;;;;5074944;28;20115;-80
2021/10/26 15:18:33;;;;;;;12.45;7.07;;;15.60;72.20;;;;;;5078696;28;20028;-80
2021/10/26 15:21:03;;;;;;;11.43;6.72;;;15.70;72.30;;;;;;5082706;28;20133;-83
2021/10/26 15:23:50;;;;;;;11.65;5.03;;;15.70;72.50;;;;;;5083312;28;20032;-79
2021/10/26 15:34:23;;;;;;;12.93;6.30;;;15.50;73.00;;;;;;5073386;28;20396;-80
2021/10/26 15:36:50;;;;;;;19.65;10.85;;;15.40;73.20;;;;;;5084769;28;20465;-80
2021/10/26 15:39:17;;;;;;;23.38;12.40;;;15.40;73.40;;;;;;5063793;28;20028;-81
2021/10/26 15:41:43;;;;;;;17.60;9.77;;;15.30;73.60;;;;;;5072585;28;20032;-81
2021/10/26 15:44:10;;;;;;;31.10;23.65;;;15.30;73.80;;;;;;5094851;28;20399;-80
2021/10/26 15:46:37;;;;;;;16.05;10.30;;;15.40;73.90;;;;;;5095373;28;20377;-80
2021/10/26 15:49:03;;;;;;;21.00;12.93;;;15.40;74.00;;;;;;5080211;28;20040;-83
2021/10/26 15:51:28;;;;;;;34.80;16.15;;;15.50;74.20;;;;;;5083589;28;20128;-81
2021/10/26 15:53:54;;;;;;;24.33;12.60;;;15.50;74.30;;;;;;5071656;28;20036;-81
2021/10/26 15:56:22;;;;;;;26.85;10.82;;;15.50;74.40;;;;;;5077474;28;20640;-78
2021/10/26 15:58:48;;;;;;;20.60;10.00;;;15.40;74.30;;;;;;5096002;28;20027;-80
2021/10/26 16:01:14;;;;;;;22.70;8.70;;;15.30;74.30;;;;;;5095124;28;20019;-79
2021/10/26 16:03:39;;;;;;;23.58;8.65;;;15.30;74.40;;;;;;5077932;28;20035;-81
2021/10/26 16:06:06;;;;;;;34.53;15.07;;;15.20;74.40;;;;;;5094717;28;20030;-82
2021/10/26 16:08:31;;;;;;;38.30;13.55;;;15.10;74.70;;;;;;5087505;28;20056;-82
2021/10/26 16:11:05;;;;;;;24.83;11.00;;;15.10;74.90;;;;;;5063487;28;20423;-80
2021/10/26 16:13:34;;;;;;;31.38;13.68;;;14.90;74.80;;;;;;5072279;28;20051;-80
2021/10/26 16:16:06;;;;;;;36.60;15.55;;;14.80;75.10;;;;;;5076417;28;20050;-81
2021/10/26 16:18:35;;;;;;;48.30;17.98;;;14.80;75.60;;;;;;5096439;28;20023;-81
2021/10/26 16:21:04;;;;;;;32.78;13.27;;;14.70;75.80;;;;;;5094052;28;20024;-81
2021/10/26 16:23:33;;;;;;;22.73;9.50;;;14.60;75.90;;;;;;5098406;28;20471;-80
2021/10/26 16:26:00;;;;;;;29.85;11.68;;;14.60;75.80;;;;;;5090870;28;20036;-80
2021/10/26 16:28:28;;;;;;;24.95;11.02;;;14.50;75.90;;;;;;5098723;28;20032;-82
2021/10/26 16:30:54;;;;;;;27.55;10.00;;;14.50;76.00;;;;;;5090483;28;20023;-82
2021/10/26 16:33:21;;;;;;;25.70;10.27;;;14.50;76.10;;;;;;5069552;28;20040;-82
2021/10/26 16:35:48;;;;;;;36.40;14.45;;;14.50;76.10;;;;;;5082745;28;20077;-81
2021/10/26 16:38:15;;;;;;;28.33;12.52;;;14.50;76.30;;;;;;5052386;28;20069;-82
2021/10/26 16:40:42;;;;;;;32.33;14.50;;;14.40;76.40;;;;;;5080285;28;20024;-80
2021/10/26 16:43:16;;;;;;;47.05;21.20;;;14.40;76.80;;;;;;5089890;28;20023;-82
2021/10/26 16:48:10;;;;;;;36.55;18.27;;;14.30;76.90;;;;;;5107052;28;20405;-80
2021/10/26 16:50:40;;;;;;;43.88;18.33;;;14.20;77.10;;;;;;5101857;28;20020;-83
2021/10/26 16:53:09;;;;;;;28.80;12.68;;;14.10;77.40;;;;;;5085970;28;20027;-80
2021/10/26 16:55:37;;;;;;;30.38;14.50;;;14.10;77.60;;;;;;5066211;28;20043;-81
2021/10/26 16:58:06;;;;;;;33.33;15.98;;;14.10;77.70;;;;;;5102388;28;20031;-81
2021/10/26 17:00:33;;;;;;;27.48;12.00;;;14.10;77.70;;;;;;5082652;28;20024;-81
2021/10/26 17:03:12;;;;;;;23.55;12.32;;;14.10;77.70;;;;;;5105021;28;20025;-80
2021/10/26 17:05:38;;;;;;;27.58;12.77;;;14.10;77.70;;;;;;5070640;28;20024;-80
2021/10/26 17:08:14;;;;;;;22.92;10.25;;;14.10;77.60;;;;;;5106013;28;20020;-80
2021/10/26 17:10:53;;;;;;;30.17;14.63;;;14.10;77.60;;;;;;5087211;28;20493;-79
2021/10/26 17:13:19;;;;;;;24.65;11.15;;;14.10;77.80;;;;;;5097350;28;20069;-82
2021/10/26 17:15:47;;;;;;;29.13;13.65;;;14.20;77.90;;;;;;5097230;28;20030;-79
2021/10/26 17:18:14;;;;;;;25.00;12.77;;;14.20;77.90;;;;;;5090849;28;20040;-81
2021/10/26 17:20:41;;;;;;;26.63;11.30;;;14.10;78.00;;;;;;5071864;28;20050;-81
2021/10/26 17:23:08;;;;;;;19.90;9.25;;;14.20;78.00;;;;;;5100643;28;20039;-81
2021/10/26 17:25:34;;;;;;;20.13;7.53;;;14.10;77.90;;;;;;5068723;28;20463;-81
2021/10/26 17:27:59;;;;;;;12.55;5.78;;;14.10;77.80;;;;;;5068682;28;20028;-79
2021/10/26 17:30:25;;;;;;;14.35;6.50;;;14.00;77.70;;;;;;5089610;28;20020;-80
2021/10/26 17:32:51;;;;;;;27.67;12.95;;;13.90;77.80;;;;;;5084212;28;20055;-80
2021/10/26 17:35:17;;;;;;;25.85;11.85;;;13.80;78.20;;;;;;5073677;28;20033;-79
2021/10/26 17:37:43;;;;;;;27.55;12.60;;;13.80;78.50;;;;;;5061537;28;20388;-80
2021/10/26 17:40:15;;;;;;;26.75;13.13;;;13.70;78.70;;;;;;5086217;28;20670;-81
2021/10/26 17:42:43;;;;;;;27.25;11.35;;;13.70;79.00;;;;;;5079081;28;20607;-80
2021/10/26 17:45:14;;;;;;;28.75;12.60;;;13.50;79.10;;;;;;5081405;28;20028;-80
2021/10/26 17:47:42;;;;;;;27.85;15.38;;;13.40;79.50;;;;;;5066001;28;20077;-82
2021/10/26 17:50:08;;;;;;;26.60;13.15;;;13.30;79.90;;;;;;5065477;28;20025;-81
2021/10/26 17:52:34;;;;;;;24.77;12.43;;;13.30;80.10;;;;;;5069984;28;20025;-80
2021/10/26 17:55:03;;;;;;;17.38;8.98;;;13.20;80.30;;;;;;5065940;28;20040;-81
2021/10/26 17:57:30;;;;;;;20.80;9.95;;;13.20;80.40;;;;;;5074162;28;20043;-79
2021/10/26 17:59:57;;;;;;;22.25;12.23;;;13.10;80.50;;;;;;5076384;28;20017;-79
2021/10/26 18:02:25;;;;;;;17.00;9.70;;;13.10;80.60;;;;;;5063120;28;20027;-84
2021/10/26 18:04:51;;;;;;;20.35;10.18;;;13.00;80.60;;;;;;5078913;28;20032;-80
2021/10/26 18:07:20;;;;;;;24.60;12.80;;;13.00;80.90;;;;;;5079476;28;20090;-81
2021/10/26 18:09:45;;;;;;;33.88;18.73;;;13.00;81.00;;;;;;5080593;28;20013;-79
2021/10/26 18:12:13;;;;;;;15.30;6.60;;;12.90;81.60;;;;;;5065600;28;20051;-79
2021/10/26 18:14:38;;;;;;;16.10;9.50;;;12.90;81.50;;;;;;5046286;28;20029;-80
2021/10/26 18:17:04;;;;;;;14.95;8.45;;;12.90;81.60;;;;;;5066771;28;20040;-81
2021/10/26 18:19:32;;;;;;;23.95;12.95;;;12.90;81.60;;;;;;5066612;28;20040;-81
2021/10/26 18:21:58;;;;;;;16.60;8.93;;;12.90;81.80;;;;;;5075408;28;20059;-79
2021/10/26 18:24:25;;;;;;;16.95;9.25;;;13.00;81.80;;;;;;5061420;28;20487;-79
2021/10/26 18:26:52;;;;;;;19.95;10.02;;;13.00;81.70;;;;;;5077287;28;20036;-78
2021/10/26 18:29:18;;;;;;;15.38;8.35;;;13.10;81.70;;;;;;5066656;28;20727;-79
2021/10/26 18:31:43;;;;;;;17.70;6.40;;;13.10;81.50;;;;;;5076131;28;20028;-79
2021/10/26 18:34:09;;;;;;;17.35;8.75;;;13.10;81.10;;;;;;5087223;28;20128;-80
2021/10/26 18:36:36;;;;;;;16.05;9.13;;;13.20;81.20;;;;;;5074870;28;20032;-79
2021/10/26 18:39:04;;;;;;;17.88;7.80;;;13.20;81.20;;;;;;5076091;28;20080;-79
2021/10/26 18:41:33;;;;;;;17.25;7.75;;;13.30;81.20;;;;;;5059682;28;20060;-82
2021/10/26 18:44:05;;;;;;;14.68;7.80;;;13.30;81.10;;;;;;5059999;28;20028;-80
2021/10/26 18:46:32;;;;;;;13.30;5.88;;;13.30;81.10;;;;;;5069774;28;20055;-82
2021/10/26 18:48:58;;;;;;;15.73;7.30;;;13.30;81.00;;;;;;5085818;28;20024;-80
2021/10/26 18:51:24;;;;;;;10.63;5.82;;;13.30;81.00;;;;;;5110909;28;20028;-78
2021/10/26 18:53:51;;;;;;;12.77;6.05;;;13.30;80.90;;;;;;5063210;28;20570;-80
2021/10/26 18:56:18;;;;;;;18.05;8.60;;;13.30;81.00;;;;;;5079113;28;20132;-78
2021/10/26 18:58:47;;;;;;;17.30;8.20;;;13.30;81.10;;;;;;5076395;28;20047;-80
2021/10/26 19:01:19;;;;;;;11.80;5.22;;;13.30;81.10;;;;;;5092747;28;20113;-79
2021/10/26 19:03:45;;;;;;;13.23;6.20;;;13.30;81.00;;;;;;5089753;28;20035;-79
2021/10/26 19:06:13;;;;;;;17.92;8.95;;;13.40;81.00;;;;;;5113920;28;20023;-79
2021/10/26 19:08:41;;;;;;;15.25;8.35;;;13.30;81.00;;;;;;5092165;28;20024;-78
2021/10/26 19:11:08;;;;;;;15.23;8.55;;;13.40;81.10;;;;;;5082404;28;20024;-79
2021/10/26 19:13:41;;;;;;;15.35;8.25;;;13.40;81.10;;;;;;5092236;28;20039;-81
2021/10/26 19:16:06;;;;;;;13.38;7.30;;;13.50;81.10;;;;;;5082310;28;20020;-79
2021/10/26 19:18:32;;;;;;;22.75;11.55;;;13.40;81.10;;;;;;5088766;28;20031;-78
2021/10/26 19:20:58;;;;;;;16.42;9.88;;;13.50;81.30;;;;;;5073659;28;20092;-78
2021/10/26 19:23:25;;;;;;;17.30;9.32;;;13.50;81.40;;;;;;5072509;28;20031;-79
2021/10/26 19:25:50;;;;;;;17.48;10.52;;;13.50;81.30;;;;;;5068954;28;20071;-79
2021/10/26 19:28:16;;;;;;;13.15;8.93;;;13.50;81.40;;;;;;5086242;28;20426;-79
2021/10/26 19:30:42;;;;;;;15.85;9.82;;;13.50;81.60;;;;;;5070849;28;20020;-80
2021/10/26 19:33:07;;;;;;;15.15;8.10;;;13.60;81.60;;;;;;5077782;28;20034;-78
2021/10/26 19:35:33;;;;;;;16.35;10.60;;;13.60;81.60;;;;;;5053412;28;20046;-78
2021/10/26 19:37:59;;;;;;;14.38;8.57;;;13.50;81.70;;;;;;5068471;28;20091;-79
2021/10/26 19:40:24;;;;;;;16.48;11.88;;;13.60;81.70;;;;;;5085414;28;20038;-79
2021/10/26 19:42:53;;;;;;;13.88;9.00;;;13.60;81.80;;;;;;5071691;28;20016;-80
2021/10/26 19:45:23;;;;;;;27.55;17.77;;;13.60;81.80;;;;;;5072264;28;20042;-81
2021/10/26 19:47:49;;;;;;;25.02;16.13;;;13.70;81.90;;;;;;5073929;28;20115;-78
2021/10/26 19:50:15;;;;;;;20.05;12.02;;;13.70;81.90;;;;;;5052691;28;20110;-78
2021/10/26 19:52:42;;;;;;;9.60;6.38;;;13.70;81.90;;;;;;5056454;28;20031;-81
2021/10/26 19:55:08;;;;;;;14.50;8.27;;;13.70;81.70;;;;;;5097192;28;20063;-79
2021/10/26 19:57:34;;;;;;;13.35;9.02;;;13.60;81.60;;;;;;5075923;28;20117;-79
2021/10/26 19:59:59;;;;;;;14.60;8.40;;;13.60;81.70;;;;;;5059716;28;20622;-79
2021/10/26 20:02:25;;;;;;;12.23;8.30;;;13.60;81.80;;;;;;5071929;28;20124;-80
2021/10/26 20:04:51;;;;;;;15.30;9.32;;;13.60;82.10;;;;;;5109988;28;20387;-80
2021/10/26 20:07:16;;;;;;;15.02;10.45;;;13.60;82.50;;;;;;5091635;28;20062;-79
2021/10/26 20:09:42;;;;;;;17.55;12.43;;;13.60;82.60;;;;;;5059222;28;20059;-81
2021/10/26 20:12:14;;;;;;;18.80;12.27;;;13.60;82.80;;;;;;5059263;28;20035;-81
2021/10/26 20:14:45;;;;;;;15.63;9.18;;;13.60;83.00;;;;;;5078606;28;20047;-78
2021/10/26 20:17:11;;;;;;;16.75;9.80;;;13.60;83.20;;;;;;5079631;28;20031;-80
2021/10/26 20:24:57;;;;;;;16.58;12.07;;;13.60;83.50;;;;;;5075167;28;20139;-79
2021/10/26 20:29:52;;;;;;;22.27;14.82;;;13.60;83.70;;;;;;5106730;28;20067;-82
2021/10/26 20:32:22;;;;;;;17.05;10.50;;;13.70;83.70;;;;;;5096877;28;20455;-79
2021/10/26 20:34:49;;;;;;;20.58;13.85;;;13.70;83.60;;;;;;5095885;28;20043;-83
2021/10/26 20:37:16;;;;;;;20.88;13.75;;;13.70;83.60;;;;;;5096885;28;20020;-78
2021/10/26 20:39:42;;;;;;;18.10;14.00;;;13.70;83.70;;;;;;5080527;28;20100;-79
2021/10/26 20:42:07;;;;;;;20.60;12.88;;;13.60;83.80;;;;;;5064311;28;20495;-80
2021/10/26 20:44:34;;;;;;;18.63;12.80;;;13.70;83.90;;;;;;5080573;28;20039;-79
2021/10/26 20:47:00;;;;;;;14.73;10.70;;;13.60;83.90;;;;;;5095191;28;20096;-78
2021/10/26 20:49:32;;;;;;;15.63;11.48;;;13.60;84.00;;;;;;5062528;28;20463;-79
2021/10/26 20:51:58;;;;;;;16.80;13.25;;;13.60;84.20;;;;;;5094896;28;20053;-81
2021/10/26 20:54:35;;;;;;;21.52;15.75;;;13.60;84.40;;;;;;5095967;28;20128;-80
2021/10/26 20:57:01;;;;;;;21.00;15.15;;;13.50;84.50;;;;;;5113748;28;20024;-80
2021/10/26 20:59:28;;;;;;;18.58;13.27;;;13.50;84.60;;;;;;5097688;28;20176;-79
2021/10/26 21:01:53;;;;;;;15.73;12.75;;;13.50;84.70;;;;;;5080309;28;20035;-82
2021/10/26 21:04:20;;;;;;;21.50;14.25;;;13.60;84.80;;;;;;5114900;28;20031;-81
2021/10/26 21:06:46;;;;;;;17.90;12.65;;;13.60;84.90;;;;;;5070396;28;20540;-79
2021/10/26 21:09:12;;;;;;;13.63;10.48;;;13.60;85.00;;;;;;5075446;28;20024;-80
2021/10/26 21:11:38;;;;;;;15.88;12.90;;;13.60;85.00;;;;;;5059613;28;20058;-80
2021/10/26 21:14:05;;;;;;;22.92;16.05;;;13.60;85.10;;;;;;5092053;28;20043;-80
2021/10/26 21:16:34;;;;;;;20.45;15.00;;;13.60;85.20;;;;;;5085970;28;20031;-79
2021/10/26 21:19:02;;;;;;;17.77;11.77;;;13.60;85.20;;;;;;5112324;28;20023;-80
2021/10/26 21:21:27;;;;;;;19.05;13.50;;;13.60;85.20;;;;;;5094492;28;20110;-81
2021/10/26 21:23:53;;;;;;;16.73;12.75;;;13.60;85.30;;;;;;5075971;28;20127;-80
2021/10/26 21:26:19;;;;;;;20.27;13.60;;;13.60;85.30;;;;;;5081663;28;20070;-80
2021/10/26 21:28:52;;;;;;;16.58;11.75;;;13.60;85.40;;;;;;5063269;28;20386;-79
2021/10/26 21:31:20;;;;;;;13.98;9.52;;;13.70;85.50;;;;;;5057975;28;20149;-81
2021/10/26 21:33:53;;;;;;;13.35;9.48;;;13.60;85.50;;;;;;5086237;28;20043;-81
2021/10/26 21:36:35;;;;;;;13.55;9.07;;;13.60;85.60;;;;;;5085996;28;20035;-81
2021/10/26 21:39:09;;;;;;;13.82;9.13;;;13.60;85.70;;;;;;5075536;28;20063;-83
2021/10/26 21:41:45;;;;;;;14.48;10.65;;;13.60;85.90;;;;;;5077462;28;20456;-80
2021/10/26 21:44:11;;;;;;;14.32;9.95;;;13.60;86.00;;;;;;5081274;28;20044;-80
2021/10/26 21:46:37;;;;;;;13.70;9.30;;;13.60;86.00;;;;;;5088383;28;20066;-82
2021/10/26 21:49:05;;;;;;;12.95;10.63;;;13.60;86.00;;;;;;5096998;28;20022;-81
2021/10/26 21:51:32;;;;;;;17.35;9.65;;;13.60;86.10;;;;;;5114970;28;20027;-80
2021/10/26 21:53:57;;;;;;;13.20;9.60;;;13.70;86.10;;;;;;5099390;28;20132;-81
2021/10/26 21:56:24;;;;;;;11.88;9.05;;;13.70;86.10;;;;;;5057383;28;20836;-80
2021/10/26 21:58:50;;;;;;;10.55;7.60;;;13.70;86.20;;;;;;5092615;28;20040;-81
2021/10/26 22:01:17;;;;;;;11.45;8.13;;;13.70;86.10;;;;;;5076173;28;20024;-81
2021/10/26 22:03:53;;;;;;;13.23;9.25;;;13.70;86.20;;;;;;5092774;28;20025;-85
2021/10/26 22:06:21;;;;;;;10.15;8.90;;;13.70;86.20;;;;;;5074724;28;20073;-80
2021/10/26 22:08:46;;;;;;;13.98;8.80;;;13.70;86.30;;;;;;5059165;28;20039;-81
2021/10/26 22:11:12;;;;;;;11.90;9.45;;;13.70;86.30;;;;;;5084144;28;20020;-80
2021/10/26 22:13:38;;;;;;;9.65;8.50;;;13.70;86.30;;;;;;5090784;28;20032;-81
2021/10/26 22:16:06;;;;;;;12.32;9.38;;;13.70;86.40;;;;;;5091417;28;20413;-82
2021/10/26 22:18:38;;;;;;;12.27;9.10;;;13.70;86.60;;;;;;5073339;28;20119;-80
2021/10/26 22:21:04;;;;;;;10.48;8.48;;;13.70;86.70;;;;;;5112419;28;20024;-79
2021/10/26 22:23:30;;;;;;;13.65;9.70;;;13.70;86.80;;;;;;5092673;28;20499;-80
2021/10/26 22:25:56;;;;;;;13.05;10.48;;;13.70;87.00;;;;;;5111303;28;20043;-79
2021/10/26 22:28:22;;;;;;;14.20;10.45;;;13.70;87.00;;;;;;5059442;28;20047;-81
2021/10/26 22:30:48;;;;;;;14.80;10.70;;;13.80;87.10;;;;;;5093635;28;20475;-80
2021/10/26 22:33:14;;;;;;;15.30;10.75;;;13.80;87.20;;;;;;5075153;28;20067;-80
2021/10/26 22:35:40;;;;;;;13.73;10.20;;;13.80;87.30;;;;;;5092700;28;20503;-81
2021/10/26 22:38:06;;;;;;;12.25;9.60;;;13.80;87.30;;;;;;5093023;28;20024;-80
2021/10/26 22:40:31;;;;;;;10.75;9.23;;;13.80;87.40;;;;;;5058330;28;20028;-80
2021/10/26 22:43:00;;;;;;;10.20;9.18;;;13.80;87.40;;;;;;5075952;28;20039;-80
2021/10/26 22:45:27;;;;;;;10.35;9.20;;;13.80;87.50;;;;;;5076335;28;20043;-81
2021/10/26 22:47:53;;;;;;;9.43;8.43;;;13.80;87.60;;;;;;5060611;28;20232;-80
2021/10/26 22:50:18;;;;;;;12.43;9.30;;;13.80;87.60;;;;;;5074835;28;20082;-80
2021/10/26 22:52:44;;;;;;;11.07;8.63;;;13.80;87.70;;;;;;5075860;28;20035;-79
2021/10/26 22:55:10;;;;;;;10.55;8.55;;;13.80;87.80;;;;;;5075334;28;20043;-79
2021/10/26 22:57:36;;;;;;;11.95;8.55;;;13.80;87.90;;;;;;5109906;28;20761;-78
2021/10/26 23:00:05;;;;;;;10.25;8.52;;;13.80;88.00;;;;;;5061660;28;20357;-79
2021/10/26 23:02:32;;;;;;;10.70;9.13;;;13.80;88.00;;;;;;5071566;28;20111;-79
2021/10/26 23:04:57;;;;;;;13.20;9.38;;;13.80;88.10;;;;;;5072571;28;20043;-79
2021/10/26 23:07:23;;;;;;;10.13;8.40;;;13.80;88.30;;;;;;5042764;28;20024;-80
2021/10/26 23:09:48;;;;;;;11.13;8.52;;;13.80;88.40;;;;;;5072385;28;20024;-78
2021/10/26 23:12:14;;;;;;;11.57;8.60;;;13.70;88.40;;;;;;5054913;28;20032;-80
2021/10/26 23:14:40;;;;;;;10.98;8.20;;;13.80;88.60;;;;;;5067457;28;20039;-79
2021/10/26 23:17:05;;;;;;;12.68;8.82;;;13.80;88.60;;;;;;5090243;28;20461;-78
2021/10/26 23:19:31;;;;;;;12.23;8.85;;;13.80;88.70;;;;;;5054652;28;20035;-79
2021/10/26 23:21:57;;;;;;;10.43;8.23;;;13.80;88.70;;;;;;5038756;28;20024;-79
2021/10/26 23:24:22;;;;;;;9.05;7.97;;;13.80;88.70;;;;;;5038214;28;20032;-78
2021/10/26 23:26:48;;;;;;;11.43;8.70;;;13.80;88.70;;;;;;5075032;28;20044;-79
2021/10/26 23:29:14;;;;;;;10.48;8.23;;;13.90;89.20;;;;;;5110413;28;20042;-79
2021/10/26 23:31:39;;;;;;;11.60;8.80;;;13.90;89.20;;;;;;5075851;28;20027;-79
2021/10/26 23:34:05;;;;;;;12.43;7.85;;;13.90;88.90;;;;;;5111842;28;20388;-79
2021/10/26 23:36:30;;;;;;;9.85;7.93;;;13.90;88.90;;;;;;5095051;28;20524;-80
2021/10/26 23:38:57;;;;;;;10.85;8.00;;;13.90;89.00;;;;;;5062312;28;20028;-80
2021/10/26 23:41:23;;;;;;;9.63;7.90;;;13.90;89.00;;;;;;5078122;28;20034;-81